Terminal Aerodrome Forecast
Issued by NWS

Home | Current Version | Previous Version | Text Only | Print | Product List | Glossary On
Versions: 1 2 3 4 5 6 7 8 9 10 11 12 13 14 15 16 17
000
FTUS43 KPAH 201720
TAFCGI
TAF
KCGI 201720Z 2018/2118 05009KT 5SM -SHRA BR BKN030 OVC080
      TEMPO 2018/2020 2SM SHRA BR BKN015 OVC030
     FM202000 02008KT 5SM -SHRA BR BKN015 OVC045
     FM210000 36007KT 6SM BR OVC009
     FM211400 36012KT P6SM BKN020=

USA.gov is the U.S. government's official web portal to all federal, state and local government web resources and services.